Time;durP1;ratioP1;P1;durP2;ratioP2;P2;SDS_P1;SDS_P2;PMS_P1;PMS_P2;Temp;Humidity;BMP_temperature;BMP_pressure;BME280_temperature;BME280_humidity;BME280_pressure;Samples;Min_cycle;Max_cycle;Signal;HPM_P1;HPM_P2
2021/06/24 07:11:58;;;;;;;27.48;8.00;;;25.30;55.80;;;;;;5089181;28;20400;-41
2021/06/24 07:14:24;;;;;;;33.13;8.50;;;25.20;56.20;;;;;;5089113;28;20024;-41
2021/06/24 07:16:50;;;;;;;47.33;11.88;;;25.30;56.00;;;;;;5088838;28;20025;-39
2021/06/24 07:19:15;;;;;;;49.53;12.65;;;25.30;55.80;;;;;;5089176;28;20036;-41
2021/06/24 07:21:41;;;;;;;50.28;12.10;;;25.30;55.70;;;;;;5070554;28;20201;-42
2021/06/24 07:24:08;;;;;;;49.60;13.10;;;25.30;55.50;;;;;;5089080;28;20028;-41
2021/06/24 07:26:34;;;;;;;50.13;13.85;;;25.30;55.30;;;;;;5070555;28;20472;-40
2021/06/24 07:29:00;;;;;;;50.22;13.27;;;25.30;55.00;;;;;;5088977;28;20095;-41
2021/06/24 07:31:26;;;;;;;46.17;13.82;;;25.30;55.70;;;;;;5088855;28;20032;-42
2021/06/24 07:33:52;;;;;;;42.10;12.95;;;25.30;54.70;;;;;;5088836;28;20023;-41
2021/06/24 07:36:18;;;;;;;42.75;13.25;;;25.30;54.50;;;;;;5088828;28;20032;-39
2021/06/24 07:38:43;;;;;;;42.78;12.35;;;25.30;54.30;;;;;;5088818;28;20024;-43
2021/06/24 07:41:09;;;;;;;43.33;12.73;;;25.30;54.20;;;;;;5088678;28;20161;-41
2021/06/24 07:43:35;;;;;;;40.50;12.68;;;25.30;54.00;;;;;;5088704;28;20027;-42
2021/06/24 07:46:01;;;;;;;48.13;12.85;;;25.30;53.90;;;;;;5070261;28;20032;-41
2021/06/24 07:48:27;;;;;;;37.92;11.27;;;25.30;53.90;;;;;;5070292;28;20493;-43
2021/06/24 07:50:53;;;;;;;39.67;11.98;;;25.30;53.80;;;;;;5088725;28;20453;-41
2021/06/24 07:53:18;;;;;;;34.72;11.65;;;25.30;53.70;;;;;;5088594;28;20024;-41
2021/06/24 07:55:45;;;;;;;41.15;11.43;;;25.30;53.60;;;;;;5070067;28;20020;-42
2021/06/24 07:58:11;;;;;;;30.35;11.02;;;25.30;53.60;;;;;;5088399;28;20052;-41
2021/06/24 08:00:37;;;;;;;35.63;11.57;;;25.40;53.50;;;;;;5088309;28;20105;-39
2021/06/24 08:03:04;;;;;;;35.63;10.65;;;25.40;53.40;;;;;;5088388;28;20054;-42
2021/06/24 08:05:30;;;;;;;38.72;10.77;;;25.40;53.40;;;;;;5069781;28;20027;-42
2021/06/24 08:07:55;;;;;;;27.88;10.10;;;25.40;53.30;;;;;;5088350;28;20404;-40
2021/06/24 08:10:22;;;;;;;30.52;10.57;;;25.40;53.20;;;;;;5088044;28;20117;-41
2021/06/24 08:12:48;;;;;;;32.92;9.75;;;25.40;53.10;;;;;;5088175;28;20036;-44
2021/06/24 08:15:16;;;;;;;29.67;10.73;;;25.40;53.10;;;;;;5069631;28;20115;-39
2021/06/24 08:17:45;;;;;;;29.23;10.57;;;25.40;52.90;;;;;;5069503;28;20093;-41
2021/06/24 08:20:12;;;;;;;34.25;9.52;;;25.40;52.90;;;;;;5088077;28;20473;-42
2021/06/24 08:22:38;;;;;;;29.77;9.23;;;25.40;52.90;;;;;;5078264;28;20439;-40
2021/06/24 08:25:07;;;;;;;33.90;9.45;;;25.40;52.80;;;;;;5074536;28;20056;-41
2021/06/24 08:27:34;;;;;;;26.02;7.90;;;25.40;52.80;;;;;;5074475;28;20063;-41
2021/06/24 08:30:01;;;;;;;26.35;8.45;;;25.40;52.70;;;;;;5074516;28;20044;-42
2021/06/24 08:32:27;;;;;;;24.55;8.40;;;25.40;52.50;;;;;;5074275;28;20435;-43
2021/06/24 08:34:53;;;;;;;25.35;8.38;;;25.40;52.40;;;;;;5074169;28;20024;-41
2021/06/24 08:37:19;;;;;;;26.30;8.50;;;25.40;52.40;;;;;;5074166;28;20017;-42
2021/06/24 08:39:46;;;;;;;21.35;7.45;;;25.40;52.40;;;;;;5073944;28;20020;-41
2021/06/24 08:42:12;;;;;;;20.85;7.78;;;25.40;52.20;;;;;;5074212;28;20024;-41
2021/06/24 08:44:39;;;;;;;23.65;7.80;;;25.40;52.10;;;;;;5074071;28;20041;-41
2021/06/24 08:47:07;;;;;;;22.33;7.47;;;25.40;52.10;;;;;;5073909;28;20021;-41
2021/06/24 08:49:35;;;;;;;23.85;8.10;;;25.40;52.10;;;;;;5056085;28;20048;-42
2021/06/24 08:52:00;;;;;;;18.70;6.95;;;25.40;52.10;;;;;;5074051;28;20017;-41
2021/06/24 08:54:26;;;;;;;22.67;7.28;;;25.40;51.90;;;;;;5055961;28;20058;-44
2021/06/24 08:56:53;;;;;;;19.95;6.95;;;25.40;51.90;;;;;;5056189;28;20066;-41
2021/06/24 08:59:19;;;;;;;18.40;6.88;;;25.40;51.80;;;;;;5074034;28;20021;-41
2021/06/24 09:01:58;;;;;;;22.35;6.43;;;25.40;51.90;;;;;;5073862;28;20033;-41
2021/06/24 09:04:26;;;;;;;20.60;7.45;;;25.40;51.80;;;;;;5073967;28;20050;-40
2021/06/24 09:06:53;;;;;;;19.75;6.55;;;25.40;51.70;;;;;;5073808;28;20066;-40
2021/06/24 09:09:47;;;;;;;20.88;6.97;;;25.40;51.70;;;;;;5073798;28;20067;-43
2021/06/24 09:12:13;;;;;;;18.05;6.32;;;25.40;51.50;;;;;;5055489;28;20037;-42
2021/06/24 09:14:46;;;;;;;15.38;5.82;;;25.40;51.70;;;;;;5055408;28;20024;-41
2021/06/24 09:17:30;;;;;;;15.82;6.03;;;25.40;51.50;;;;;;5073775;28;20258;-42
2021/06/24 09:19:56;;;;;;;16.17;5.68;;;25.40;51.50;;;;;;5073671;28;20035;-41
2021/06/24 09:22:22;;;;;;;17.20;5.85;;;25.40;51.40;;;;;;5073817;28;20031;-41
2021/06/24 09:24:49;;;;;;;15.52;5.57;;;25.30;51.40;;;;;;5073588;28;20028;-42
2021/06/24 09:27:29;;;;;;;16.75;5.82;;;25.30;51.30;;;;;;5073440;28;20082;-41
2021/06/24 09:30:15;;;;;;;17.35;5.82;;;25.30;51.30;;;;;;5073498;28;20029;-40
2021/06/24 09:32:45;;;;;;;17.52;5.93;;;25.30;51.30;;;;;;5073121;28;20033;-42
2021/06/24 09:35:31;;;;;;;11.90;5.50;;;25.30;51.30;;;;;;5072270;28;20036;-42
2021/06/24 09:38:01;;;;;;;14.20;5.38;;;25.40;51.40;;;;;;5053858;28;20025;-42
2021/06/24 09:40:48;;;;;;;15.60;5.30;;;25.30;51.30;;;;;;5072910;28;20020;-41
2021/06/24 09:43:36;;;;;;;13.38;5.70;;;25.30;52.10;;;;;;5072943;28;20027;-41
2021/06/24 09:46:19;;;;;;;12.15;4.88;;;25.30;51.10;;;;;;5072952;28;20035;-43
2021/06/24 09:49:05;;;;;;;15.85;5.00;;;25.30;51.10;;;;;;5072946;28;20021;-43
2021/06/24 09:51:33;;;;;;;13.75;5.88;;;25.30;51.00;;;;;;5072787;28;20020;-40
2021/06/24 09:54:03;;;;;;;13.13;5.35;;;25.30;51.00;;;;;;5072312;28;20528;-41
2021/06/24 09:56:57;;;;;;;11.65;4.50;;;25.30;50.90;;;;;;5072399;28;20024;-41
2021/06/24 09:59:32;;;;;;;15.35;4.53;;;25.20;50.80;;;;;;5072481;28;20477;-41
2021/06/24 10:02:06;;;;;;;10.95;4.45;;;25.20;50.80;;;;;;5072546;28;20129;-41
2021/06/24 10:04:32;;;;;;;11.50;4.95;;;25.20;50.80;;;;;;5072779;28;20029;-40
2021/06/24 10:07:00;;;;;;;9.55;4.43;;;25.20;50.90;;;;;;5071994;28;20574;-41
2021/06/24 10:09:28;;;;;;;10.85;4.50;;;25.20;50.80;;;;;;5072512;28;20016;-42
2021/06/24 10:11:54;;;;;;;9.93;4.13;;;25.20;50.80;;;;;;5054158;28;20402;-41
2021/06/24 10:14:21;;;;;;;11.43;4.20;;;25.20;50.80;;;;;;5072370;28;20017;-40
2021/06/24 10:16:51;;;;;;;13.23;4.55;;;25.20;50.80;;;;;;5072357;28;20017;-40
2021/06/24 10:19:39;;;;;;;11.13;4.60;;;25.20;50.70;;;;;;5072443;28;20107;-41
2021/06/24 10:22:29;;;;;;;11.35;4.53;;;25.20;50.80;;;;;;5072063;28;20033;-41
2021/06/24 10:25:00;;;;;;;9.55;4.25;;;25.20;50.70;;;;;;5072108;28;20042;-41
2021/06/24 10:27:46;;;;;;;9.48;4.28;;;25.20;50.80;;;;;;5072256;28;20025;-40
2021/06/24 10:30:15;;;;;;;9.27;4.55;;;25.20;50.90;;;;;;5072234;28;20032;-40
2021/06/24 10:32:43;;;;;;;9.55;4.22;;;25.20;50.80;;;;;;5072100;28;20028;-40
2021/06/24 10:35:30;;;;;;;9.63;4.15;;;25.20;50.80;;;;;;5071841;28;20055;-41
2021/06/24 10:38:00;;;;;;;8.98;3.88;;;25.20;50.80;;;;;;5072124;28;20028;-40
2021/06/24 10:40:36;;;;;;;9.52;4.20;;;25.20;50.80;;;;;;5054055;28;20446;-41
2021/06/24 10:43:05;;;;;;;9.82;3.92;;;25.20;50.70;;;;;;5072110;28;20025;-40
2021/06/24 10:45:32;;;;;;;8.60;3.90;;;25.20;50.70;;;;;;5071326;28;20024;-41
2021/06/24 10:48:18;;;;;;;6.45;3.80;;;25.20;50.70;;;;;;5071668;28;20107;-40
2021/06/24 10:50:44;;;;;;;9.77;3.95;;;25.20;50.70;;;;;;5053761;28;20058;-42
2021/06/24 10:53:45;;;;;;;8.05;4.03;;;25.20;50.60;;;;;;5071586;28;20064;-41
2021/06/24 10:56:45;;;;;;;7.03;3.60;;;25.20;50.60;;;;;;5071480;28;20017;-40
2021/06/24 10:59:31;;;;;;;7.68;3.80;;;25.10;50.40;;;;;;5071856;28;20036;-40
2021/06/24 11:02:05;;;;;;;7.57;3.70;;;25.20;50.50;;;;;;5053442;28;20029;-39
2021/06/24 11:04:37;;;;;;;8.82;3.60;;;25.20;50.50;;;;;;5071803;28;20025;-41
2021/06/24 11:07:16;;;;;;;7.30;3.63;;;25.10;51.30;;;;;;5071324;28;20091;-42
2021/06/24 11:10:21;;;;;;;7.00;3.55;;;25.20;50.50;;;;;;5071562;28;20059;-41
2021/06/24 11:12:49;;;;;;;6.07;3.70;;;25.10;50.30;;;;;;5053472;28;20107;-41
2021/06/24 11:15:55;;;;;;;10.32;4.30;;;25.20;50.30;;;;;;5071319;28;20035;-41
2021/06/24 11:18:56;;;;;;;7.97;3.22;;;25.20;50.40;;;;;;5071667;28;20103;-40
2021/06/24 11:21:49;;;;;;;10.05;3.90;;;25.10;50.10;;;;;;5071167;28;20405;-41
2021/06/24 11:24:19;;;;;;;7.07;3.55;;;25.20;50.10;;;;;;5071260;28;20111;-43
2021/06/24 11:26:49;;;;;;;7.38;3.53;;;25.20;50.30;;;;;;5071517;28;20024;-40
2021/06/24 11:32:14;;;;;;;7.18;3.42;;;25.10;50.10;;;;;;5071321;28;20040;-42
2021/06/24 11:34:51;;;;;;;7.10;3.75;;;25.10;50.20;;;;;;5071502;28;20025;-42
2021/06/24 11:37:22;;;;;;;6.18;3.60;;;25.10;50.10;;;;;;5071522;28;20025;-42
2021/06/24 11:39:53;;;;;;;5.82;3.50;;;25.10;50.10;;;;;;5071311;28;20036;-42
2021/06/24 11:42:26;;;;;;;6.15;3.03;;;25.20;50.10;;;;;;5071341;28;20171;-41
2021/06/24 11:44:53;;;;;;;6.32;3.53;;;25.10;50.00;;;;;;5071112;28;20532;-40
2021/06/24 11:47:21;;;;;;;5.63;3.30;;;25.10;50.10;;;;;;5071301;28;20028;-42
2021/06/24 12:01:54;;;;;;;3.95;3.40;;;25.10;50.10;;;;;;5074820;28;20393;-42
2021/06/24 12:04:25;;;;;;;5.05;3.25;;;25.10;50.10;;;;;;5074973;28;20024;-40
2021/06/24 12:07:13;;;;;;;5.43;3.53;;;25.10;50.10;;;;;;5075262;28;20020;-40
2021/06/24 12:09:42;;;;;;;7.15;3.55;;;25.10;50.10;;;;;;5074551;28;20039;-41
2021/06/24 12:12:12;;;;;;;4.20;3.03;;;25.10;50.10;;;;;;5056555;28;20017;-41
2021/06/24 12:14:41;;;;;;;8.57;3.50;;;25.10;50.10;;;;;;5074754;28;20025;-41
2021/06/24 12:17:30;;;;;;;7.15;3.25;;;25.10;50.20;;;;;;5074388;28;20401;-42
2021/06/24 12:20:20;;;;;;;4.85;2.92;;;25.10;50.00;;;;;;5074567;28;20152;-40
2021/06/24 12:22:52;;;;;;;5.07;3.15;;;25.10;50.00;;;;;;5074402;28;20024;-41
2021/06/24 12:25:22;;;;;;;5.25;3.28;;;25.10;49.80;;;;;;5074628;28;20039;-41
2021/06/24 12:27:51;;;;;;;4.57;3.33;;;25.10;50.00;;;;;;5074466;28;20035;-40
2021/06/24 12:30:24;;;;;;;5.53;3.70;;;25.10;50.00;;;;;;5074474;28;20107;-42
2021/06/24 12:33:11;;;;;;;6.68;3.17;;;25.10;49.90;;;;;;5056162;28;20025;-41
2021/06/24 12:35:41;;;;;;;7.55;3.20;;;25.10;49.90;;;;;;5074758;28;20090;-41
2021/06/24 12:38:09;;;;;;;5.78;3.20;;;25.10;49.70;;;;;;5074160;28;20025;-42
2021/06/24 12:40:39;;;;;;;5.38;3.38;;;25.10;49.80;;;;;;5056027;28;20477;-41
2021/06/24 12:43:07;;;;;;;4.45;3.22;;;25.10;49.80;;;;;;5074241;28;20115;-44
2021/06/24 12:45:36;;;;;;;5.25;3.13;;;25.10;49.70;;;;;;5074181;28;20102;-45
2021/06/24 12:48:02;;;;;;;6.00;3.35;;;25.10;49.80;;;;;;5074258;28;20028;-43
2021/06/24 12:50:31;;;;;;;4.55;3.10;;;25.10;49.70;;;;;;5074148;28;20020;-40
2021/06/24 12:53:04;;;;;;;6.13;2.97;;;25.10;49.80;;;;;;5055907;28;20024;-40
2021/06/24 12:55:52;;;;;;;5.18;3.60;;;25.10;49.80;;;;;;5074099;28;20090;-41
2021/06/24 12:58:37;;;;;;;4.68;3.50;;;25.10;49.70;;;;;;5073847;28;20036;-43
2021/06/24 13:01:17;;;;;;;4.28;2.95;;;25.10;49.70;;;;;;5055786;28;20077;-43
2021/06/24 13:03:48;;;;;;;6.03;3.22;;;25.10;49.60;;;;;;5073977;28;20025;-42
2021/06/24 13:06:20;;;;;;;6.53;3.10;;;25.10;49.70;;;;;;5073895;28;20070;-43
2021/06/24 13:08:50;;;;;;;;;;;25.10;49.70;;;;;;5074114;28;20028;-40
2021/06/24 13:11:17;;;;;;;4.65;2.92;;;25.10;49.70;;;;;;5073323;28;19916;-41
2021/06/24 13:13:54;;;;;;;5.88;2.92;;;25.10;49.70;;;;;;5073955;28;20025;-41
2021/06/24 13:16:22;;;;;;;4.85;3.42;;;25.10;49.60;;;;;;5073770;28;20020;-42
2021/06/24 13:18:50;;;;;;;5.15;2.65;;;25.10;49.70;;;;;;5073551;28;20129;-40
2021/06/24 13:21:16;;;;;;;4.35;2.75;;;25.10;49.60;;;;;;5073318;28;20107;-43
2021/06/24 13:23:42;;;;;;;4.60;2.92;;;25.10;49.50;;;;;;5055100;28;20062;-41
2021/06/24 13:26:13;;;;;;;5.95;2.78;;;25.10;49.40;;;;;;5055404;28;20025;-40
2021/06/24 13:28:40;;;;;;;3.92;3.20;;;25.10;49.40;;;;;;5073372;28;20090;-42
2021/06/24 13:31:06;;;;;;;3.80;2.70;;;25.10;49.40;;;;;;5073322;28;20020;-43
2021/06/24 13:33:37;;;;;;;5.00;3.15;;;25.10;49.20;;;;;;5072821;28;20024;-41
2021/06/24 13:36:24;;;;;;;3.08;2.78;;;25.10;49.20;;;;;;5072954;28;20025;-41
2021/06/24 13:38:53;;;;;;;5.35;3.30;;;25.10;49.20;;;;;;5073106;28;20027;-41
2021/06/24 13:41:22;;;;;;;3.50;2.80;;;25.10;49.10;;;;;;5072848;28;20115;-42
2021/06/24 13:44:16;;;;;;;5.50;2.85;;;25.10;49.10;;;;;;5073111;28;20524;-41
2021/06/24 13:46:45;;;;;;;4.43;2.95;;;25.10;49.10;;;;;;5072871;28;20036;-43
2021/06/24 13:49:12;;;;;;;3.80;2.75;;;25.10;49.20;;;;;;5072848;28;20028;-41
2021/06/24 13:51:40;;;;;;;4.70;2.80;;;25.10;49.30;;;;;;5055210;28;20442;-41
2021/06/24 13:54:08;;;;;;;3.58;2.65;;;25.10;49.40;;;;;;5055270;28;20055;-42
2021/06/24 13:56:35;;;;;;;3.83;2.72;;;25.10;49.40;;;;;;5072376;28;20637;-41
2021/06/24 13:59:04;;;;;;;6.50;3.10;;;25.10;49.50;;;;;;5054317;28;20069;-42
2021/06/24 14:01:30;;;;;;;4.63;2.88;;;25.10;49.40;;;;;;5072649;28;20358;-42
2021/06/24 14:03:58;;;;;;;4.32;3.05;;;25.10;49.30;;;;;;5072587;28;20028;-40
2021/06/24 14:06:25;;;;;;;3.30;2.70;;;25.10;49.40;;;;;;5072430;28;20023;-41
2021/06/24 14:08:51;;;;;;;4.22;3.20;;;25.10;49.40;;;;;;5072523;28;20032;-42
2021/06/24 14:11:18;;;;;;;4.45;3.13;;;25.10;49.40;;;;;;5072041;28;20037;-40
2021/06/24 14:13:46;;;;;;;3.65;2.95;;;25.10;49.50;;;;;;5072212;28;20017;-40
2021/06/24 14:16:14;;;;;;;5.15;2.75;;;25.10;49.40;;;;;;5072724;28;20038;-42
2021/06/24 14:18:42;;;;;;;2.80;2.50;;;25.10;49.40;;;;;;5072285;28;20025;-40
2021/06/24 14:21:11;;;;;;;4.47;3.00;;;25.10;49.50;;;;;;5071692;28;20339;-42
2021/06/24 14:23:38;;;;;;;3.05;2.70;;;25.10;49.50;;;;;;5072245;28;20025;-42
2021/06/24 14:26:05;;;;;;;4.00;3.10;;;25.10;49.60;;;;;;5072209;28;20028;-41
2021/06/24 14:28:32;;;;;;;4.85;2.95;;;25.00;49.40;;;;;;5072163;28;20070;-42
2021/06/24 14:30:58;;;;;;;5.13;2.70;;;25.10;49.50;;;;;;5072189;28;20020;-41
2021/06/24 14:33:26;;;;;;;7.00;3.50;;;25.10;49.50;;;;;;5072125;28;20549;-40
2021/06/24 14:35:51;;;;;;;5.95;3.72;;;25.10;49.40;;;;;;5072116;28;20025;-41
2021/06/24 14:38:17;;;;;;;8.73;3.33;;;25.10;49.30;;;;;;5072150;28;20392;-42
2021/06/24 14:40:43;;;;;;;10.05;3.83;;;25.10;49.40;;;;;;5053714;28;20444;-41
2021/06/24 14:43:09;;;;;;;18.55;5.25;;;25.00;49.10;;;;;;5053652;28;20116;-41
2021/06/24 14:45:35;;;;;;;11.82;4.00;;;25.10;49.00;;;;;;5071866;28;20150;-40
2021/06/24 14:48:00;;;;;;;11.50;4.32;;;25.10;49.00;;;;;;5053917;28;20032;-40
2021/06/24 14:50:26;;;;;;;10.60;4.28;;;25.10;48.80;;;;;;5071710;28;20377;-40
2021/06/24 14:52:53;;;;;;;10.80;4.35;;;25.10;49.10;;;;;;5071428;28;20420;-40
2021/06/24 14:55:19;;;;;;;8.35;4.22;;;25.10;49.00;;;;;;5071765;28;20067;-42
2021/06/24 14:57:45;;;;;;;11.05;4.07;;;25.10;49.10;;;;;;5053496;28;20074;-41
2021/06/24 15:00:11;;;;;;;12.90;4.47;;;25.10;49.10;;;;;;5071665;28;20481;-41
2021/06/24 15:02:37;;;;;;;10.20;3.80;;;25.10;49.20;;;;;;5053194;28;20125;-42
2021/06/24 15:05:07;;;;;;;11.93;4.47;;;25.10;49.40;;;;;;5071627;28;20029;-45
2021/06/24 15:07:33;;;;;;;11.85;4.82;;;25.10;50.10;;;;;;5082903;28;20111;-49
2021/06/24 15:09:58;;;;;;;15.05;4.35;;;25.10;49.60;;;;;;5069924;28;20127;-50
2021/06/24 15:12:24;;;;;;;11.13;5.22;;;25.10;49.80;;;;;;5069254;28;20059;-46
2021/06/24 15:14:50;;;;;;;11.25;4.18;;;25.10;49.30;;;;;;5071730;28;20024;-46
2021/06/24 15:17:15;;;;;;;11.30;4.03;;;25.20;49.40;;;;;;5071607;28;20439;-43
2021/06/24 15:19:41;;;;;;;7.47;3.92;;;25.20;49.50;;;;;;5070019;28;20561;-44
2021/06/24 15:22:07;;;;;;;10.18;4.38;;;25.20;49.50;;;;;;5071590;28;20115;-44
2021/06/24 15:24:35;;;;;;;10.43;4.68;;;25.20;49.30;;;;;;5071636;28;20021;-43
2021/06/24 15:27:01;;;;;;;10.07;4.57;;;25.20;48.90;;;;;;5070020;28;20404;-44
2021/06/24 15:29:27;;;;;;;12.85;4.50;;;25.20;48.80;;;;;;5071772;28;20020;-43
2021/06/24 15:31:53;;;;;;;12.13;4.32;;;25.20;48.60;;;;;;5072339;28;20109;-42
2021/06/24 15:34:19;;;;;;;14.73;4.30;;;25.20;48.00;;;;;;5076049;28;20028;-45
2021/06/24 15:36:45;;;;;;;9.18;4.05;;;25.20;48.10;;;;;;5075975;28;20032;-42
2021/06/24 15:39:12;;;;;;;12.63;4.20;;;25.20;47.80;;;;;;5075148;28;20087;-43
2021/06/24 15:41:38;;;;;;;13.55;4.93;;;25.20;47.90;;;;;;5070576;28;20162;-42
2021/06/24 15:44:04;;;;;;;9.98;4.47;;;25.20;48.10;;;;;;5074805;28;20025;-45
2021/06/24 15:46:30;;;;;;;14.68;4.55;;;25.20;48.40;;;;;;5074852;28;20017;-44
2021/06/24 15:48:55;;;;;;;7.60;3.72;;;25.20;48.50;;;;;;5074944;28;20024;-42
2021/06/24 15:51:22;;;;;;;11.50;4.20;;;25.20;48.60;;;;;;5073637;28;20013;-41
2021/06/24 15:53:48;;;;;;;8.40;4.10;;;25.20;48.60;;;;;;5067653;28;20039;-40
2021/06/24 15:56:13;;;;;;;9.98;4.57;;;25.20;48.60;;;;;;5074584;28;20021;-40
2021/06/24 15:58:39;;;;;;;8.85;3.70;;;25.20;48.50;;;;;;5073547;28;20033;-44
2021/06/24 16:01:05;;;;;;;8.98;3.67;;;25.20;48.60;;;;;;5075048;28;20035;-48
2021/06/24 16:03:32;;;;;;;11.90;4.10;;;25.20;48.50;;;;;;5075078;28;20065;-47
2021/06/24 16:05:58;;;;;;;13.45;3.70;;;25.20;48.40;;;;;;5075420;28;20028;-46
2021/06/24 16:08:24;;;;;;;12.23;4.32;;;25.30;48.30;;;;;;5075442;28;20501;-45
2021/06/24 16:10:50;;;;;;;14.60;3.97;;;25.30;48.10;;;;;;5074867;28;20044;-45
2021/06/24 16:13:16;;;;;;;11.10;4.07;;;25.30;48.20;;;;;;5074801;28;20024;-45
2021/06/24 16:15:42;;;;;;;17.38;4.18;;;25.30;48.40;;;;;;5075216;28;20021;-46
2021/06/24 16:18:09;;;;;;;11.23;4.20;;;25.30;48.50;;;;;;5074574;28;20078;-46
2021/06/24 16:20:35;;;;;;;13.32;3.85;;;25.20;48.20;;;;;;5074361;28;20028;-46
2021/06/24 16:23:00;;;;;;;13.40;3.78;;;25.30;48.30;;;;;;5073029;28;20025;-44
2021/06/24 16:25:26;;;;;;;9.57;3.63;;;25.30;48.40;;;;;;5072690;28;20104;-44
2021/06/24 16:27:52;;;;;;;9.52;3.65;;;25.30;48.40;;;;;;5074366;28;20362;-47
2021/06/24 16:30:20;;;;;;;8.65;3.30;;;25.30;48.20;;;;;;5074098;28;20021;-44
2021/06/24 16:32:53;;;;;;;8.50;3.50;;;25.30;48.30;;;;;;5074752;28;20409;-44
2021/06/24 16:35:21;;;;;;;10.82;3.42;;;25.30;48.30;;;;;;5074410;28;20064;-44
2021/06/24 16:37:47;;;;;;;8.48;3.47;;;25.30;48.20;;;;;;5074379;28;20029;-44
2021/06/24 16:40:13;;;;;;;8.25;3.10;;;25.30;48.00;;;;;;5074140;28;20040;-45
2021/06/24 16:42:39;;;;;;;7.20;3.35;;;25.20;47.90;;;;;;5072105;28;20074;-46
2021/06/24 16:45:06;;;;;;;7.80;3.40;;;25.20;47.30;;;;;;5074076;28;20497;-44
2021/06/24 16:47:32;;;;;;;8.73;3.67;;;25.20;47.20;;;;;;5074173;28;20108;-44
2021/06/24 16:49:58;;;;;;;11.07;3.38;;;25.20;47.10;;;;;;5072680;28;20108;-45
2021/06/24 16:52:23;;;;;;;6.78;2.80;;;25.20;47.10;;;;;;5074086;28;20028;-44
2021/06/24 16:54:49;;;;;;;9.02;3.45;;;25.20;47.00;;;;;;5074034;28;20036;-44
2021/06/24 16:57:15;;;;;;;5.60;2.97;;;25.20;46.70;;;;;;5074006;28;20385;-44
2021/06/24 16:59:41;;;;;;;4.35;2.47;;;25.20;46.20;;;;;;5072220;28;20024;-44
2021/06/24 17:02:07;;;;;;;7.68;3.10;;;25.20;46.20;;;;;;5073755;28;20035;-46
2021/06/24 17:04:44;;;;;;;6.10;2.80;;;25.20;46.10;;;;;;5072437;28;20021;-46
2021/06/24 17:07:12;;;;;;;4.90;2.80;;;25.20;46.10;;;;;;5073653;28;20021;-46
2021/06/24 17:09:38;;;;;;;8.95;3.08;;;25.20;46.10;;;;;;5073249;28;20063;-44
2021/06/24 17:12:04;;;;;;;4.97;2.78;;;25.20;45.90;;;;;;5073204;28;20048;-45
2021/06/24 17:14:30;;;;;;;5.97;2.78;;;25.20;45.80;;;;;;5071808;28;20557;-45
2021/06/24 17:16:55;;;;;;;7.60;3.30;;;25.10;45.80;;;;;;5073492;28;20104;-45
2021/06/24 17:19:21;;;;;;;8.73;3.33;;;25.20;45.70;;;;;;5072067;28;20516;-44
2021/06/24 17:21:47;;;;;;;6.40;3.05;;;25.10;45.60;;;;;;5073509;28;20043;-44
2021/06/24 17:24:12;;;;;;;5.93;3.10;;;25.10;45.50;;;;;;5071931;28;20024;-44
2021/06/24 17:26:38;;;;;;;4.32;3.00;;;25.10;45.40;;;;;;5073727;28;20032;-46
2021/06/24 17:29:04;;;;;;;5.93;2.90;;;25.10;45.50;;;;;;5073090;28;20021;-45
2021/06/24 17:31:30;;;;;;;4.43;2.38;;;25.10;45.60;;;;;;5073372;28;20094;-45
2021/06/24 17:33:55;;;;;;;5.72;3.00;;;25.10;45.70;;;;;;5073312;28;20046;-45
2021/06/24 17:36:22;;;;;;;5.13;3.35;;;25.10;45.90;;;;;;5073256;28;20020;-45
2021/06/24 17:38:49;;;;;;;4.65;2.85;;;25.10;45.60;;;;;;5073160;28;20078;-47
2021/06/24 17:41:18;;;;;;;4.82;2.80;;;25.10;45.60;;;;;;5072917;28;20407;-46
2021/06/24 17:43:45;;;;;;;7.13;2.95;;;25.10;45.60;;;;;;5073209;28;20056;-46
2021/06/24 17:46:11;;;;;;;3.97;2.88;;;25.10;45.50;;;;;;5071587;28;20029;-45
2021/06/24 17:48:36;;;;;;;6.05;3.10;;;25.10;45.40;;;;;;5073110;28;20032;-44
2021/06/24 17:51:02;;;;;;;4.43;2.70;;;25.10;45.30;;;;;;5073080;28;20021;-46
2021/06/24 17:53:28;;;;;;;6.85;3.10;;;25.10;45.50;;;;;;5072992;28;20024;-45
2021/06/24 17:55:54;;;;;;;4.13;2.67;;;25.10;45.20;;;;;;5070518;28;20457;-45
2021/06/24 17:58:20;;;;;;;6.15;3.50;;;25.10;45.30;;;;;;5072905;28;20078;-46
2021/06/24 18:00:48;;;;;;;5.55;3.25;;;25.00;45.10;;;;;;5071533;28;20123;-45
2021/06/24 18:03:14;;;;;;;5.32;3.60;;;25.00;45.00;;;;;;5072810;28;20039;-49
2021/06/24 18:05:40;;;;;;;6.28;3.80;;;25.00;42.50;;;;;;5072674;28;20107;-46
2021/06/24 18:08:08;;;;;;;5.32;4.18;;;25.00;39.90;;;;;;5072706;28;20031;-48
2021/06/24 18:10:36;;;;;;;7.28;3.85;;;24.90;38.90;;;;;;5072249;28;20489;-47
2021/06/24 18:13:03;;;;;;;8.23;4.22;;;24.90;37.80;;;;;;5072439;28;20020;-46
2021/06/24 18:15:29;;;;;;;5.88;4.30;;;24.90;37.50;;;;;;5072481;28;20048;-47
2021/06/24 18:17:54;;;;;;;7.10;4.30;;;24.80;37.80;;;;;;5072340;28;20374;-47
2021/06/24 18:20:21;;;;;;;6.07;4.15;;;24.80;37.80;;;;;;5072394;28;20032;-46
2021/06/24 18:22:46;;;;;;;5.55;4.00;;;24.80;37.20;;;;;;5072335;28;20106;-49
2021/06/24 18:25:14;;;;;;;5.35;4.25;;;24.80;36.90;;;;;;5072274;28;20048;-48
2021/06/24 18:27:41;;;;;;;5.38;4.13;;;24.70;36.70;;;;;;5072339;28;20024;-50
2021/06/24 18:30:09;;;;;;;26.38;8.65;;;24.70;36.80;;;;;;5072241;28;20036;-50
2021/06/24 18:32:35;;;;;;;43.22;12.45;;;24.70;38.00;;;;;;5072003;28;20477;-48
2021/06/24 18:35:01;;;;;;;47.10;12.95;;;24.70;38.90;;;;;;5070521;28;20032;-48
2021/06/24 18:37:26;;;;;;;39.80;12.25;;;24.60;38.60;;;;;;5072016;28;20066;-49
2021/06/24 18:39:53;;;;;;;33.10;10.25;;;24.70;38.40;;;;;;5071999;28;20036;-48
2021/06/24 18:42:19;;;;;;;29.80;10.30;;;24.70;38.30;;;;;;5072118;28;20087;-48
2021/06/24 18:44:45;;;;;;;25.42;9.13;;;24.60;38.40;;;;;;5071952;28;20020;-48
2021/06/24 18:47:11;;;;;;;25.83;11.23;;;24.60;38.00;;;;;;5070457;28;20530;-49
2021/06/24 18:49:37;;;;;;;24.23;9.07;;;24.60;37.30;;;;;;5071765;28;20398;-50
2021/06/24 18:52:03;;;;;;;15.18;7.88;;;24.60;37.30;;;;;;5070529;28;20025;-47
2021/06/24 18:54:29;;;;;;;14.32;6.80;;;24.60;37.70;;;;;;5072032;28;20020;-47
2021/06/24 18:56:54;;;;;;;11.52;7.10;;;24.60;36.90;;;;;;5070254;28;20031;-47
2021/06/24 18:59:22;;;;;;;12.80;6.53;;;24.60;36.70;;;;;;5071724;28;20393;-49
2021/06/24 19:01:48;;;;;;;11.60;5.80;;;24.50;36.60;;;;;;5071632;28;20035;-48
2021/06/24 19:04:14;;;;;;;11.88;6.15;;;24.50;36.30;;;;;;5071667;28;20025;-47
2021/06/24 19:06:40;;;;;;;8.38;5.30;;;24.50;36.00;;;;;;5071096;28;20508;-47
2021/06/24 19:09:06;;;;;;;11.77;5.82;;;24.50;35.60;;;;;;5071458;28;20378;-49
2021/06/24 19:11:32;;;;;;;11.50;5.28;;;24.50;35.70;;;;;;5071181;28;20056;-50
2021/06/24 19:13:57;;;;;;;7.20;5.43;;;24.40;35.70;;;;;;5071655;28;20017;-50
2021/06/24 19:16:23;;;;;;;7.30;5.63;;;24.40;35.50;;;;;;5071821;28;20286;-50
2021/06/24 19:18:49;;;;;;;7.45;5.53;;;24.40;35.60;;;;;;5069827;28;20032;-49
2021/06/24 19:21:15;;;;;;;8.18;5.35;;;24.40;35.50;;;;;;5070445;28;20025;-48
2021/06/24 19:23:41;;;;;;;7.93;5.30;;;24.40;35.60;;;;;;5071493;28;20025;-50
2021/06/24 19:26:07;;;;;;;6.68;5.10;;;24.40;35.40;;;;;;5071525;28;20103;-49
2021/06/24 19:28:34;;;;;;;6.13;5.05;;;24.40;35.40;;;;;;5071470;28;20108;-47
2021/06/24 19:31:00;;;;;;;6.95;6.10;;;24.40;35.60;;;;;;5071167;28;20025;-50
2021/06/24 19:33:25;;;;;;;7.07;5.43;;;24.40;35.70;;;;;;5070973;28;20020;-48
2021/06/24 19:35:51;;;;;;;8.57;5.57;;;24.40;35.90;;;;;;5070968;28;20400;-43
2021/06/24 19:38:17;;;;;;;6.72;5.28;;;24.30;35.50;;;;;;5070950;28;20570;-46
2021/06/24 19:40:43;;;;;;;5.90;5.10;;;24.30;35.00;;;;;;5070749;28;20028;-44
2021/06/24 19:43:09;;;;;;;5.82;4.78;;;24.30;35.70;;;;;;5070928;28;20024;-46
2021/06/24 19:45:36;;;;;;;9.68;5.75;;;24.20;34.50;;;;;;5070657;28;20027;-44
2021/06/24 19:48:02;;;;;;;9.13;6.07;;;24.20;34.40;;;;;;5070371;28;20029;-47
2021/06/24 19:50:28;;;;;;;10.77;7.25;;;24.10;34.50;;;;;;5070713;28;20508;-47
2021/06/24 19:52:54;;;;;;;9.48;6.35;;;24.10;34.40;;;;;;5070489;28;20060;-44
2021/06/24 19:55:20;;;;;;;16.33;9.25;;;24.00;34.30;;;;;;5070691;28;20033;-45
2021/06/24 19:57:47;;;;;;;10.05;7.15;;;24.00;34.30;;;;;;5070728;28;20109;-43
2021/06/24 20:00:15;;;;;;;17.05;10.80;;;23.90;34.30;;;;;;5070752;28;20512;-44
2021/06/24 20:02:42;;;;;;;11.32;7.45;;;23.90;34.30;;;;;;5070549;28;20035;-44
2021/06/24 20:05:10;;;;;;;10.57;6.43;;;23.90;34.40;;;;;;5070690;28;20539;-44
2021/06/24 20:07:36;;;;;;;9.52;6.40;;;23.90;34.40;;;;;;5068927;28;20040;-44
2021/06/24 20:10:04;;;;;;;8.15;5.80;;;23.80;34.60;;;;;;5070301;28;20099;-44
2021/06/24 20:12:30;;;;;;;10.00;5.85;;;23.80;34.40;;;;;;5070672;28;20027;-45
2021/06/24 20:14:55;;;;;;;9.45;6.38;;;23.70;35.20;;;;;;5070735;28;20025;-42
2021/06/24 20:17:21;;;;;;;9.38;5.93;;;23.70;36.30;;;;;;5070628;28;20072;-42